createdAt,value
2022-10-09T04:54:46.775Z,0.01
2022-10-09T04:59:00.416Z,0.02
2022-10-09T05:01:48.926Z,0.03
2022-10-09T05:04:23.264Z,0.05
2022-10-09T05:06:43.529Z,0.09
2022-10-09T05:08:49.515Z,0.14
2022-10-09T05:11:44.234Z,0.25
2022-10-09T05:14:25.015Z,0.37
2022-10-09T05:17:12.290Z,0.59
2022-10-09T05:19:03.651Z,0.9
2022-10-09T05:21:01.781Z,1.22
2022-10-09T05:23:48.643Z,1.77
2022-10-09T05:26:21.171Z,2.49
2022-10-09T05:28:39.544Z,3.35
2022-10-09T05:30:43.287Z,4.26
2022-10-09T05:33:36.262Z,5.87
2022-10-09T05:36:15.067Z,7.8
2022-10-09T05:38:39.990Z,9.33
2022-10-09T05:40:50.268Z,11.52
2022-10-09T05:43:49.406Z,14.42
2022-10-09T05:46:34.632Z,17.61
2022-10-09T05:49:05.579Z,20.3
2022-10-09T05:51:22.230Z,22.47
2022-10-09T05:53:24.803Z,24.92
2022-10-09T05:56:16.168Z,28.16
2022-10-09T05:58:53.323Z,31.52
2022-10-09T06:01:16.027Z,33.85
2022-10-09T06:03:24.796Z,36.62
2022-10-09T06:06:22.261Z,40.3
2022-10-09T06:09:05.383Z,43.2
2022-10-09T06:11:34.514Z,47.32
2022-10-09T06:13:49.401Z,49.8
2022-10-09T06:15:50.065Z,51.12
2022-10-09T06:18:39.685Z,54.7
2022-10-09T06:21:14.952Z,63.78
2022-10-09T06:23:35.614Z,74.24
2022-10-09T06:25:42.651Z,74.56
2022-10-09T06:28:38.444Z,61.08
2022-10-09T06:31:19.903Z,62.86
2022-10-09T06:33:46.948Z,63.92
2022-10-09T06:36:08.717Z,65.58
2022-10-09T06:37:58.895Z,67.06
2022-10-09T06:40:46.430Z,69.48
2022-10-09T06:43:20.097Z,71.72
2022-10-09T06:45:39.271Z,73.16
2022-10-09T06:47:44.241Z,83.6
2022-10-09T06:50:38.246Z,105.68
2022-10-09T06:53:17.933Z,99.84
2022-10-09T06:55:43.389Z,93.48
2022-10-09T06:57:54.900Z,94.28
2022-10-09T07:00:55.109Z,101.2
2022-10-09T07:03:41.003Z,107.64
2022-10-09T07:06:12.668Z,113.24
2022-10-09T07:08:30.372Z,119.2
2022-10-09T07:10:33.370Z,123.36
2022-10-09T07:13:25.363Z,128.04
2022-10-09T07:16:04.752Z,132.08
2022-10-09T07:18:26.426Z,137.36
2022-10-09T07:20:35.798Z,147.36
2022-10-09T07:23:34.120Z,183.6
2022-10-09T07:26:18.216Z,212.5
2022-10-09T07:28:48.225Z,220.7
2022-10-09T07:31:03.893Z,227.7
2022-10-09T07:33:05.422Z,232.4
2022-10-09T07:35:55.724Z,239.1
2022-10-09T07:40:53.666Z,250.8
2022-10-09T07:43:01.257Z,254.7
2022-10-09T07:45:57.729Z,261.7
2022-10-09T07:48:40.031Z,266.6
2022-10-09T07:51:08.147Z,271.2
2022-10-09T07:53:21.987Z,275.2
2022-10-09T07:55:21.811Z,278.7
2022-10-09T07:58:10.357Z,283.8
2022-10-09T08:00:25.488Z,286.8
2022-10-09T08:02:26.332Z,291.4
2022-10-09T08:05:15.874Z,295.7
2022-10-09T08:07:51.088Z,302.1
2022-10-09T08:10:12.265Z,305.6
2022-10-09T08:12:19.213Z,310.3
2022-10-09T08:15:15.209Z,317.3
2022-10-09T08:17:56.913Z,322.6
2022-10-09T08:20:24.329Z,326.8
2022-10-09T08:22:37.706Z,331.2
2022-10-09T08:24:36.755Z,334.8
2022-10-09T08:27:24.464Z,340.1
2022-10-09T08:29:58.119Z,343.6
2022-10-09T08:32:17.553Z,349.6
2022-10-09T08:34:22.763Z,352.4
2022-10-09T08:37:16.718Z,359.3
2022-10-09T08:39:56.624Z,366.8
2022-10-09T08:42:22.356Z,372.6
2022-10-09T08:44:33.689Z,375.3
2022-10-09T08:47:34.073Z,381.7
2022-10-09T08:50:20.238Z,388.9
2022-10-09T08:52:52.310Z,392.9
2022-10-09T08:55:09.671Z,395.8
2022-10-09T08:57:13.249Z,399.8
2022-10-09T09:00:05.238Z,405.4
2022-10-09T09:02:43.295Z,409.6
2022-10-09T09:05:07.197Z,413.1
2022-10-09T09:07:16.906Z,417.6
2022-10-09T09:10:15.455Z,423
2022-10-09T09:12:59.853Z,430.7
2022-10-09T09:15:29.974Z,441.2
2022-10-09T09:17:45.848Z,452.4
2022-10-09T09:19:47.634Z,464.1
2022-10-09T09:22:38.129Z,475.5
2022-10-09T09:25:14.514Z,490.7
2022-10-09T09:27:36.373Z,504.9
2022-10-09T09:29:44.261Z,514.4
2022-10-09T09:32:40.861Z,537.6
2022-10-09T09:35:23.243Z,559.8
2022-10-09T09:37:51.531Z,574.5
2022-10-09T09:40:35.332Z,580
2022-10-09T09:42:05.328Z,590.2
2022-10-09T09:44:54.060Z,602.5
2022-10-09T09:47:28.430Z,608.8
2022-10-09T09:49:48.461Z,610.2
2022-10-09T09:51:54.052Z,612.8
2022-10-09T09:54:48.784Z,624.3
2022-10-09T09:57:29.210Z,624
2022-10-09T09:59:55.459Z,620.6
2022-10-09T10:02:07.560Z,634.5
2022-10-09T10:04:05.459Z,637.6
2022-10-09T10:06:51.962Z,640.6
2022-10-09T10:09:24.489Z,648.6
2022-10-09T10:11:42.685Z,654.8
2022-10-09T10:13:46.662Z,653.9
2022-10-09T10:16:39.508Z,657.9
2022-10-09T10:19:18.040Z,660.1
2022-10-09T10:21:42.323Z,662.4
2022-10-09T10:23:52.677Z,662.7
2022-10-09T10:26:51.549Z,667.5
2022-10-09T10:29:36.191Z,666.8
2022-10-09T10:32:06.571Z,666.2
2022-10-09T10:34:22.938Z,668.4
2022-10-09T10:36:25.062Z,678.7
2022-10-09T10:39:15.713Z,675.8
2022-10-09T10:41:52.365Z,683.2
2022-10-09T10:44:14.419Z,683.8
2022-10-09T10:46:22.612Z,680
2022-10-09T10:49:19.580Z,693.1
2022-10-09T10:52:02.360Z,694
2022-10-09T10:54:30.931Z,702.4
2022-10-09T10:56:45.222Z,689.9
2022-10-09T10:58:45.561Z,693.1
2022-10-09T11:04:09.112Z,688.3
2022-10-09T11:06:29.805Z,692.8
2022-10-09T11:08:36.193Z,677.7
2022-10-09T11:11:31.136Z,673.2
2022-10-09T11:16:38.903Z,662.7
2022-10-09T11:18:51.360Z,660.4
2022-10-09T11:20:49.989Z,650.7
2022-10-09T11:23:37.188Z,646.8
2022-10-09T11:26:10.041Z,644.4
2022-10-09T11:28:28.784Z,643.6
2022-10-09T11:30:33.419Z,643.5
2022-10-09T11:33:26.663Z,648.4
2022-10-09T11:36:05.340Z,666.8
2022-10-09T11:38:30.420Z,660.1
2022-10-09T11:40:41.246Z,682.5
2022-10-09T11:43:40.587Z,681.6
2022-10-09T11:46:25.967Z,686.7
2022-10-09T11:48:57.299Z,687
2022-10-09T11:51:14.330Z,688
2022-10-09T11:53:17.533Z,667.2
2022-10-09T11:56:09.317Z,669.7
2022-10-09T11:58:46.914Z,667.5
2022-10-09T12:01:10.369Z,693.7
2022-10-09T12:03:19.816Z,683.2
2022-10-09T12:06:17.963Z,640.1
2022-10-09T12:09:01.887Z,635.5
2022-10-09T12:11:31.841Z,637.2
2022-10-09T12:13:47.527Z,681.6
2022-10-09T12:15:48.885Z,721.9
2022-10-09T12:18:39.206Z,626.4
2022-10-09T12:21:15.255Z,620.3
2022-10-09T12:23:37.144Z,626.2
2022-10-09T12:25:44.980Z,642.8
2022-10-09T12:28:41.281Z,613.4
2022-10-09T12:31:23.594Z,596.3
2022-10-09T12:33:51.512Z,592.4
2022-10-09T12:36:05.547Z,589.4
2022-10-09T12:38:05.380Z,586.8
2022-10-09T12:40:53.763Z,586.5
2022-10-09T12:43:28.233Z,582.5
2022-10-09T12:45:48.469Z,576.9
2022-10-09T12:47:54.410Z,581.1
2022-10-09T12:50:49.285Z,582.7
2022-10-09T12:53:29.926Z,576
2022-10-09T12:55:56.318Z,580.9
2022-10-09T12:58:08.659Z,577.6
2022-10-09T13:00:06.707Z,571.8
2022-10-09T13:02:54.006Z,562.8
2022-10-09T13:05:25.923Z,555.5
2022-10-09T13:07:48.352Z,551
2022-10-09T13:09:48.552Z,558.2
2022-10-09T13:12:41.432Z,555.8
2022-10-09T13:15:20.343Z,559.8
2022-10-09T13:17:44.872Z,557.1
2022-10-09T13:19:54.895Z,551
2022-10-09T13:22:54.202Z,549.9
2022-10-09T13:25:39.194Z,542.8
2022-10-09T13:28:10.018Z,543.2
2022-10-09T13:30:26.391Z,548.3
2022-10-09T13:32:28.747Z,554.8
2022-10-09T13:35:19.797Z,551.3
2022-10-09T13:37:56.531Z,521.7
2022-10-09T13:40:19.300Z,575.5
2022-10-09T13:42:27.798Z,796.8
2022-10-09T13:45:25.008Z,520
2022-10-09T13:48:08.251Z,503.8
2022-10-09T13:50:37.110Z,494.4
2022-10-09T13:52:51.838Z,515.5
2022-10-09T13:54:52.580Z,488.4
2022-10-09T13:57:42.061Z,473.1
2022-10-09T14:00:17.208Z,444.4
2022-10-09T14:02:38.063Z,428.4
2022-10-09T14:04:44.906Z,419
2022-10-09T14:07:40.499Z,411.8
2022-10-09T14:10:23.840Z,444.6
2022-10-09T14:12:48.879Z,415
2022-10-09T14:15:01.783Z,399
2022-10-09T14:17:00.604Z,417.9
2022-10-09T14:19:48.296Z,395.3
2022-10-09T14:22:21.699Z,380.6
2022-10-09T14:24:40.864Z,407
2022-10-09T14:26:49.612Z,421.1
2022-10-09T14:29:39.844Z,466.7
2022-10-09T14:32:19.354Z,375
2022-10-09T14:34:44.537Z,354.4
2022-10-09T14:36:55.774Z,442.7
2022-10-09T14:39:55.717Z,903.3
2022-10-09T14:42:41.428Z,332
2022-10-09T14:45:13.046Z,354.5
2022-10-09T14:47:30.448Z,301.8
2022-10-09T14:49:33.643Z,289.7
2022-10-09T14:52:25.724Z,285.6
2022-10-09T14:55:03.501Z,276
2022-10-09T14:57:29.270Z,250.5
2022-10-09T14:59:36.657Z,238.5
2022-10-09T15:02:34.858Z,231.9
2022-10-09T15:05:18.351Z,217.9
2022-10-09T15:07:48.233Z,208
2022-10-09T15:10:03.679Z,197.4
2022-10-09T15:12:05.113Z,194.8
2022-10-09T15:14:55.198Z,191.2
2022-10-09T15:17:31.276Z,182.9
2022-10-09T15:19:53.074Z,178.1
2022-10-09T15:22:00.647Z,172.8
2022-10-09T15:24:57.154Z,167
2022-10-09T15:27:39.361Z,161.64
2022-10-09T15:30:07.344Z,156.64
2022-10-09T15:32:20.974Z,152.48
2022-10-09T15:34:20.671Z,147.84
2022-10-09T15:37:09.047Z,142.44
2022-10-09T15:39:43.311Z,133.52
2022-10-09T15:42:03.241Z,113.16
2022-10-09T15:44:09.074Z,95.36
2022-10-09T15:47:03.636Z,82.88
2022-10-09T15:49:44.163Z,70.36
2022-10-09T15:52:10.390Z,72.84
2022-10-09T15:54:22.402Z,82.72
2022-10-09T15:56:19.994Z,87.28
2022-10-09T15:59:06.717Z,84.12
2022-10-09T16:01:39.385Z,76.56
2022-10-09T16:03:57.207Z,69.08
2022-10-09T16:06:01.373Z,62.4
2022-10-09T16:08:54.160Z,55.06
2022-10-09T16:11:32.804Z,59.04
2022-10-09T16:13:57.388Z,57.96
2022-10-09T16:16:07.633Z,54
2022-10-09T16:19:06.755Z,49.92
2022-10-09T16:21:51.541Z,47.3
2022-10-09T16:24:22.247Z,42.46
2022-10-09T16:26:38.646Z,38.62
2022-10-09T16:28:41.147Z,35.11
2022-10-09T16:31:32.253Z,29.77
2022-10-09T16:34:09.199Z,24.37
2022-10-09T16:36:31.821Z,21.25
2022-10-09T16:38:40.378Z,18.34
2022-10-09T16:41:41.060Z,14.53
2022-10-09T16:44:20.743Z,11.92
2022-10-09T16:46:49.719Z,9.67
2022-10-09T16:49:04.063Z,7.74
2022-10-09T16:51:04.823Z,6.36
2022-10-09T16:53:53.872Z,4.59
2022-10-09T16:56:29.010Z,3.41
2022-10-09T16:58:49.948Z,2.4
2022-10-09T17:00:56.816Z,1.74
2022-10-09T17:03:52.489Z,1.03
2022-10-09T17:06:33.525Z,0.62
2022-10-09T17:09:00.510Z,0.36
2022-10-09T17:11:13.486Z,0.23
2022-10-09T17:13:12.266Z,0.15
2022-10-09T17:15:59.843Z,0.09
2022-10-09T17:18:33.096Z,0.05
2022-10-09T17:20:52.285Z,0.04
2022-10-09T17:22:57.099Z,0.03
2022-10-09T17:25:50.915Z,0.01
2022-10-09T17:41:23.727Z,0
2022-10-09T18:21:03.995Z,0.01
2022-10-09T18:26:13.519Z,0
2022-10-09T18:35:28.504Z,0.01
2022-10-09T18:42:52.925Z,0
2022-10-09T18:45:13.221Z,0.01
2022-10-09T18:47:19.654Z,0
2022-10-09T19:09:18.150Z,0.01
2022-10-09T19:14:50.806Z,0.02
2022-10-09T19:17:15.895Z,0.01
2022-10-09T19:19:26.802Z,0
2022-10-09T19:30:00.016Z,0.01
2022-10-09T19:32:03.070Z,0
2022-10-09T19:37:32.134Z,0.01
2022-10-09T19:39:55.558Z,0
2022-10-09T20:16:44.988Z,0.01
2022-10-09T20:19:33.125Z,0
2022-10-09T20:22:07.069Z,0.01
2022-10-09T20:24:26.740Z,0
2022-10-09T20:29:26.639Z,0.01
2022-10-09T20:32:06.664Z,0
